Time,TemperatureF,DewpointF,PressureIn,WindDirection,WindDirectionDegrees,WindSpeedMPH,WindSpeedGustMPH,Humidity,HourlyPrecipIn,Conditions,Clouds,dailyrainin,SoftwareType,DateUTC
2013-10-12 00:00:00,61.1,60.0,29.96,NW,312,0.0,0.9,96,0.00,RA,,0.00,WeatherDisplay:10.37,2013-10-12 04:00:00,
2013-10-12 00:01:00,61.1,60.0,29.96,NW,312,0.0,0.9,96,0.00,RA,,0.00,WeatherDisplay:10.37,2013-10-12 04:01:00,
2013-10-12 00:02:00,61.1,60.5,29.96,NW,311,3.5,3.5,98,0.00,RA,,0.00,WeatherDisplay:10.37,2013-10-12 04:02:00,
2013-10-12 00:07:00,61.1,60.0,29.96,NW,311,0.0,0.0,96,0.00,RA,,0.00,WeatherDisplay:10.37,2013-10-12 04:07:00,
2013-10-12 00:12:00,61.1,60.0,29.96,NW,311,0.0,0.0,96,0.00,,,0.00,WeatherDisplay:10.37,2013-10-12 04:12:00,
2013-10-12 00:18:00,61.1,60.0,29.96,NW,312,0.0,0.0,96,0.00,,,0.00,WeatherDisplay:10.37,2013-10-12 04:18:00,
2013-10-12 00:23:00,61.1,60.5,29.96,NW,312,0.0,0.0,98,0.00,,,0.00,WeatherDisplay:10.37,2013-10-12 04:23:00,
2013-10-12 00:28:00,61.1,60.5,29.96,NW,311,2.3,2.3,98,0.00,,,0.00,WeatherDisplay:10.37,2013-10-12 04:28:00,
2013-10-12 00:33:00,61.1,60.5,29.95,NW,311,1.2,0.0,98,0.00,,,0.00,WeatherDisplay:10.37,2013-10-12 04:33:00,
2013-10-12 00:38:00,61.1,60.5,29.96,NW,312,0.0,0.0,98,0.00,,,0.00,WeatherDisplay:10.37,2013-10-12 04:38:00,
2013-10-12 00:43:00,61.2,60.6,29.96,NW,311,1.2,0.0,98,0.00,,,0.00,WeatherDisplay:10.37,2013-10-12 04:43:00,
2013-10-12 00:48:00,61.2,60.6,29.95,NW,312,3.5,3.5,98,0.00,,,0.00,WeatherDisplay:10.37,2013-10-12 04:48:00,
2013-10-12 00:53:00,61.2,60.6,29.95,NW,313,0.0,1.3,98,0.00,,,0.00,WeatherDisplay:10.37,2013-10-12 04:53:00,
2013-10-12 00:58:00,61.2,60.6,29.95,NW,313,0.0,0.0,98,0.00,,,0.00,WeatherDisplay:10.37,2013-10-12 04:58:00,
2013-10-12 01:03:00,61.2,60.6,29.95,NW,313,0.0,0.0,98,0.00,,,0.00,WeatherDisplay:10.37,2013-10-12 05:03:00,
2013-10-12 01:08:00,61.2,60.6,29.95,NW,313,0.0,0.0,98,0.00,,,0.00,WeatherDisplay:10.37,2013-10-12 05:08:00,
2013-10-12 01:13:00,61.2,60.6,29.95,NW,313,0.0,0.0,98,0.00,,,0.00,WeatherDisplay:10.37,2013-10-12 05:13:00,
2013-10-12 01:18:00,61.2,60.6,29.95,NW,313,1.2,1.2,98,0.00,,,0.00,WeatherDisplay:10.37,2013-10-12 05:18:00,
2013-10-12 01:23:00,61.2,60.6,29.95,NW,313,1.2,1.2,98,0.00,,,0.00,WeatherDisplay:10.37,2013-10-12 05:23:00,
2013-10-12 01:28:00,61.2,60.6,29.95,NW,313,1.2,1.2,98,0.00,,,0.00,WeatherDisplay:10.37,2013-10-12 05:28:00,
2013-10-12 01:33:00,61.2,60.6,29.95,NW,313,0.0,0.0,98,0.00,,,0.00,WeatherDisplay:10.37,2013-10-12 05:33:00,
2013-10-12 01:38:00,61.2,60.6,29.95,NW,313,0.0,0.0,98,0.00,,,0.00,WeatherDisplay:10.37,2013-10-12 05:38:00,
2013-10-12 01:43:00,61.2,60.6,29.95,NW,313,0.0,0.0,98,0.00,,,0.00,WeatherDisplay:10.37,2013-10-12 05:43:00,
2013-10-12 01:48:00,61.2,60.6,29.95,NW,313,0.0,0.0,98,0.00,,,0.00,WeatherDisplay:10.37,2013-10-12 05:48:00,
2013-10-12 01:53:00,61.2,60.6,29.95,NW,313,0.0,0.0,98,0.00,,,0.00,WeatherDisplay:10.37,2013-10-12 05:53:00,
2013-10-12 01:58:00,61.2,60.6,29.95,NW,313,0.0,0.0,98,0.00,,,0.00,WeatherDisplay:10.37,2013-10-12 05:58:00,
2013-10-12 02:03:00,61.2,60.6,29.95,NW,313,0.0,0.0,98,0.00,,,0.00,WeatherDisplay:10.37,2013-10-12 06:03:00,
2013-10-12 02:08:00,61.2,60.6,29.95,NW,313,0.0,0.0,98,0.00,,,0.00,WeatherDisplay:10.37,2013-10-12 06:08:00,
2013-10-12 02:13:00,61.2,60.6,29.95,NW,313,0.0,0.0,98,0.00,,,0.00,WeatherDisplay:10.37,2013-10-12 06:13:00,
2013-10-12 02:18:00,61.1,60.5,29.95,NW,313,0.0,0.0,98,0.00,,,0.00,WeatherDisplay:10.37,2013-10-12 06:18:00,
2013-10-12 02:23:00,61.2,60.6,29.95,NW,313,1.2,0.0,98,0.00,,,0.00,WeatherDisplay:10.37,2013-10-12 06:23:00,
2013-10-12 02:28:00,61.1,60.5,29.95,NW,313,0.0,0.0,98,0.00,,,0.00,WeatherDisplay:10.37,2013-10-12 06:28:00,
2013-10-12 02:33:00,61.1,60.5,29.95,NW,313,2.3,2.3,98,0.00,,,0.00,WeatherDisplay:10.37,2013-10-12 06:33:00,
2013-10-12 02:38:00,61.1,60.5,29.95,NW,313,0.0,0.0,98,0.00,,,0.00,WeatherDisplay:10.37,2013-10-12 06:38:00,
2013-10-12 02:43:00,61.1,60.5,29.95,NW,313,0.0,0.0,98,0.00,,,0.00,WeatherDisplay:10.37,2013-10-12 06:43:00,
2013-10-12 02:48:00,61.1,60.5,29.95,NW,313,0.0,0.0,98,0.00,,,0.00,WeatherDisplay:10.37,2013-10-12 06:48:00,
2013-10-12 02:53:00,61.1,60.5,29.95,NW,313,0.0,0.0,98,0.00,,,0.00,WeatherDisplay:10.37,2013-10-12 06:53:00,
2013-10-12 02:58:00,61.1,60.5,29.95,NW,313,0.0,0.0,98,0.00,,,0.00,WeatherDisplay:10.37,2013-10-12 06:58:00,
2013-10-12 03:03:00,61.1,60.5,29.95,NW,313,0.0,0.0,98,0.00,,,0.00,WeatherDisplay:10.37,2013-10-12 07:03:00,
2013-10-12 03:08:00,61.1,60.5,29.95,NW,313,0.0,0.0,98,0.00,,,0.00,WeatherDisplay:10.37,2013-10-12 07:08:00,
2013-10-12 03:13:00,61.0,60.4,29.95,NW,313,1.2,0.0,98,0.00,,,0.00,WeatherDisplay:10.37,2013-10-12 07:13:00,
2013-10-12 03:18:00,61.0,60.4,29.95,NW,313,0.0,0.0,98,0.00,,,0.00,WeatherDisplay:10.37,2013-10-12 07:18:00,
2013-10-12 03:23:00,61.0,60.4,29.95,NW,313,0.0,0.0,98,0.00,,,0.00,WeatherDisplay:10.37,2013-10-12 07:23:00,
2013-10-12 03:28:00,61.0,60.4,29.95,NW,313,3.5,3.5,98,0.00,,,0.00,WeatherDisplay:10.37,2013-10-12 07:28:00,
2013-10-12 03:33:00,61.0,60.4,29.95,NW,313,0.0,0.0,98,0.00,,,0.00,WeatherDisplay:10.37,2013-10-12 07:33:00,
2013-10-12 03:38:00,61.0,60.4,29.95,NW,313,0.0,0.0,98,0.00,,,0.00,WeatherDisplay:10.37,2013-10-12 07:38:00,
2013-10-12 03:43:00,61.0,60.4,29.95,NW,313,1.2,0.0,98,0.00,,,0.00,WeatherDisplay:10.37,2013-10-12 07:43:00,
2013-10-12 03:48:00,61.0,60.4,29.95,NW,313,1.2,0.0,98,0.00,,,0.00,WeatherDisplay:10.37,2013-10-12 07:48:00,
2013-10-12 03:53:00,60.9,60.3,29.95,NW,313,0.0,0.0,98,0.00,,,0.00,WeatherDisplay:10.37,2013-10-12 07:53:00,
2013-10-12 03:58:00,60.9,60.3,29.95,NW,313,0.0,0.0,98,0.00,,,0.00,WeatherDisplay:10.37,2013-10-12 07:58:00,
2013-10-12 04:03:00,60.9,60.3,29.95,NW,313,3.5,3.5,98,0.00,,,0.00,WeatherDisplay:10.37,2013-10-12 08:03:00,
2013-10-12 04:08:00,60.9,60.3,29.95,NW,313,0.0,0.0,98,0.00,,,0.00,WeatherDisplay:10.37,2013-10-12 08:08:00,
2013-10-12 04:13:00,60.9,60.3,29.95,NW,313,0.0,0.0,98,0.00,,,0.00,WeatherDisplay:10.37,2013-10-12 08:13:00,
2013-10-12 04:18:00,60.9,60.3,29.95,NNE,13,0.0,0.0,98,0.00,,,0.00,WeatherDisplay:10.37,2013-10-12 08:18:00,
2013-10-12 04:23:00,60.9,60.3,29.96,NNE,13,0.0,0.0,98,0.00,,,0.00,WeatherDisplay:10.37,2013-10-12 08:23:00,
2013-10-12 04:28:00,60.9,60.3,29.96,North,10,0.0,0.0,98,0.00,,,0.00,WeatherDisplay:10.37,2013-10-12 08:28:00,
2013-10-12 04:33:00,60.9,60.3,29.95,North,355,1.2,1.2,98,0.00,,,0.00,WeatherDisplay:10.37,2013-10-12 08:33:00,
2013-10-12 04:38:00,60.9,60.3,29.96,North,355,0.0,0.0,98,0.00,,,0.00,WeatherDisplay:10.37,2013-10-12 08:38:00,
2013-10-12 04:43:00,60.9,60.3,29.95,North,355,1.2,1.2,98,0.00,,,0.00,WeatherDisplay:10.37,2013-10-12 08:43:00,
2013-10-12 04:48:00,60.9,60.3,29.95,North,355,1.2,0.0,98,0.00,,,0.00,WeatherDisplay:10.37,2013-10-12 08:48:00,
2013-10-12 04:53:00,60.9,60.3,29.96,North,355,0.0,0.0,98,0.00,,,0.00,WeatherDisplay:10.37,2013-10-12 08:53:00,
2013-10-12 04:58:00,60.9,60.3,29.96,North,355,2.3,2.3,98,0.00,,,0.00,WeatherDisplay:10.37,2013-10-12 08:58:00,
2013-10-12 05:03:00,60.9,60.3,29.96,North,355,3.5,3.5,98,0.00,,,0.00,WeatherDisplay:10.37,2013-10-12 09:03:00,
2013-10-12 05:08:00,60.9,60.3,29.96,North,355,0.0,0.0,98,0.00,,,0.00,WeatherDisplay:10.37,2013-10-12 09:08:00,
2013-10-12 05:13:00,60.9,60.3,29.96,North,355,2.3,2.3,98,0.00,,,0.00,WeatherDisplay:10.37,2013-10-12 09:13:00,
2013-10-12 05:18:00,60.8,60.2,29.97,North,355,1.2,1.2,98,0.00,,,0.00,WeatherDisplay:10.37,2013-10-12 09:18:00,
2013-10-12 05:23:00,60.9,60.3,29.97,North,355,0.0,0.0,98,0.00,,,0.00,WeatherDisplay:10.37,2013-10-12 09:23:00,
2013-10-12 05:28:00,60.9,60.3,29.97,North,355,1.2,0.0,98,0.00,,,0.00,WeatherDisplay:10.37,2013-10-12 09:28:00,
2013-10-12 05:33:00,60.9,60.3,29.97,North,355,0.0,0.0,98,0.00,,,0.00,WeatherDisplay:10.37,2013-10-12 09:33:00,
2013-10-12 05:38:00,60.9,60.3,29.97,North,355,3.5,3.5,98,0.00,,,0.00,WeatherDisplay:10.37,2013-10-12 09:38:00,
2013-10-12 05:43:00,60.9,60.3,29.97,North,355,0.0,0.0,98,0.00,,,0.00,WeatherDisplay:10.37,2013-10-12 09:43:00,
2013-10-12 05:48:00,60.9,60.3,29.97,North,355,2.3,2.3,98,0.00,,,0.00,WeatherDisplay:10.37,2013-10-12 09:48:00,
2013-10-12 05:53:00,60.9,60.3,29.97,NW,311,3.5,3.5,98,0.00,,,0.00,WeatherDisplay:10.37,2013-10-12 09:53:00,
2013-10-12 05:58:00,60.9,60.3,29.97,NNW,331,0.0,0.0,98,0.00,,,0.00,WeatherDisplay:10.37,2013-10-12 09:58:00,
2013-10-12 06:03:00,60.9,60.6,29.97,NNW,331,0.0,0.0,99,0.00,,,0.00,WeatherDisplay:10.37,2013-10-12 10:03:00,
2013-10-12 06:08:00,60.9,60.6,29.98,NNW,330,0.0,0.0,99,0.00,,,0.00,WeatherDisplay:10.37,2013-10-12 10:08:00,
2013-10-12 06:13:00,60.9,60.6,29.98,NNW,330,1.2,0.0,99,0.00,,,0.00,WeatherDisplay:10.37,2013-10-12 10:13:00,
2013-10-12 06:18:00,61.0,60.7,29.98,NNW,331,3.5,3.5,99,0.00,,,0.00,WeatherDisplay:10.37,2013-10-12 10:18:00,
2013-10-12 06:23:00,61.0,60.7,29.98,NNW,330,0.0,0.0,99,0.00,,,0.00,WeatherDisplay:10.37,2013-10-12 10:23:00,
2013-10-12 06:28:00,61.0,60.7,29.98,NNW,331,0.0,0.0,99,0.00,,,0.00,WeatherDisplay:10.37,2013-10-12 10:28:00,
2013-10-12 06:33:00,61.0,60.7,29.98,NW,318,0.0,1.2,99,0.00,,,0.00,WeatherDisplay:10.37,2013-10-12 10:33:00,
2013-10-12 06:38:00,61.0,60.7,29.98,NW,318,0.0,0.0,99,0.00,,,0.00,WeatherDisplay:10.37,2013-10-12 10:38:00,
2013-10-12 06:43:00,61.0,60.7,29.98,NW,319,3.5,0.0,99,0.00,,,0.00,WeatherDisplay:10.37,2013-10-12 10:43:00,
2013-10-12 06:48:00,61.0,60.7,29.98,North,355,0.0,0.0,99,0.00,,,0.00,WeatherDisplay:10.37,2013-10-12 10:48:00,
2013-10-12 06:53:00,61.1,60.8,29.98,North,355,0.0,0.0,99,0.00,,,0.00,WeatherDisplay:10.37,2013-10-12 10:53:00,
2013-10-12 06:58:00,61.1,60.8,29.98,North,355,0.0,0.0,99,0.00,,,0.00,WeatherDisplay:10.37,2013-10-12 10:58:00,
2013-10-12 07:03:00,61.1,60.8,29.98,North,355,0.0,0.0,99,0.00,,,0.00,WeatherDisplay:10.37,2013-10-12 11:03:00,
2013-10-12 07:08:00,61.1,60.8,29.98,North,355,0.0,0.0,99,0.00,,,0.00,WeatherDisplay:10.37,2013-10-12 11:08:00,
2013-10-12 07:13:00,61.1,60.8,29.98,North,355,1.2,0.0,99,0.00,,,0.00,WeatherDisplay:10.37,2013-10-12 11:13:00,
2013-10-12 07:18:00,61.1,60.8,29.99,North,355,0.0,0.0,99,0.00,,,0.00,WeatherDisplay:10.37,2013-10-12 11:18:00,
2013-10-12 07:23:00,61.1,60.8,29.99,East,82,1.0,1.0,99,0.00,,,0.00,WeatherDisplay:10.37,2013-10-12 11:23:00,
2013-10-12 07:28:00,61.2,60.9,29.99,East,81,0.0,0.0,99,0.00,,,0.00,WeatherDisplay:10.37,2013-10-12 11:28:00,
2013-10-12 07:33:00,61.2,60.9,29.99,East,80,1.2,0.0,99,0.00,,,0.00,WeatherDisplay:10.37,2013-10-12 11:33:00,
2013-10-12 07:38:00,61.2,60.9,29.99,NE,51,0.0,0.0,99,0.00,,,0.00,WeatherDisplay:10.37,2013-10-12 11:38:00,
2013-10-12 07:43:00,61.2,60.9,29.99,NNE,21,0.0,0.0,99,0.00,,,0.00,WeatherDisplay:10.37,2013-10-12 11:43:00,
2013-10-12 07:48:00,61.2,60.9,29.99,NNE,21,0.0,0.0,99,0.00,,,0.00,WeatherDisplay:10.37,2013-10-12 11:48:00,
2013-10-12 07:53:00,61.3,61.0,29.99,NNE,19,0.0,0.0,99,0.00,,,0.00,WeatherDisplay:10.37,2013-10-12 11:53:00,
2013-10-12 07:58:00,61.3,61.0,29.99,NNE,20,0.0,0.0,99,0.00,,,0.00,WeatherDisplay:10.37,2013-10-12 11:58:00,
2013-10-12 08:03:00,61.4,61.1,29.99,NNW,341,0.0,1.2,99,0.00,,,0.00,WeatherDisplay:10.37,2013-10-12 12:03:00,
2013-10-12 08:08:00,61.5,61.2,30.00,NNW,343,0.0,0.0,99,0.00,,,0.00,WeatherDisplay:10.37,2013-10-12 12:08:00,
2013-10-12 08:13:00,61.5,61.2,30.00,NNW,342,0.0,0.0,99,0.00,,,0.00,WeatherDisplay:10.37,2013-10-12 12:13:00,
2013-10-12 08:18:00,61.5,61.2,30.00,NNW,343,0.0,0.0,99,0.00,,,0.00,WeatherDisplay:10.37,2013-10-12 12:18:00,
2013-10-12 08:23:00,61.6,61.3,30.00,North,5,4.6,0.0,99,0.00,,,0.00,WeatherDisplay:10.37,2013-10-12 12:23:00,
2013-10-12 08:28:00,61.7,61.4,30.00,North,5,0.0,0.0,99,0.00,,,0.00,WeatherDisplay:10.37,2013-10-12 12:28:00,
2013-10-12 08:33:00,61.7,61.4,30.00,North,5,1.2,1.2,99,0.00,,,0.00,WeatherDisplay:10.37,2013-10-12 12:33:00,
2013-10-12 08:38:00,61.8,61.5,30.00,North,9,0.0,0.0,99,0.00,,,0.00,WeatherDisplay:10.37,2013-10-12 12:38:00,
2013-10-12 08:43:00,61.9,61.6,30.01,North,9,0.0,0.4,99,0.00,,,0.00,WeatherDisplay:10.37,2013-10-12 12:43:00,
2013-10-12 08:48:00,62.0,61.7,30.01,North,9,0.0,0.0,99,0.00,,,0.00,WeatherDisplay:10.37,2013-10-12 12:48:00,
2013-10-12 08:53:00,62.1,61.8,30.01,North,9,0.0,0.0,99,0.00,,,0.00,WeatherDisplay:10.37,2013-10-12 12:53:00,
2013-10-12 08:58:00,62.2,61.9,30.01,North,9,0.0,0.0,99,0.00,,,0.00,WeatherDisplay:10.37,2013-10-12 12:58:00,
2013-10-12 09:03:00,62.3,62.0,30.01,North,5,0.0,0.0,99,0.00,,,0.00,WeatherDisplay:10.37,2013-10-12 13:03:00,
2013-10-12 09:08:00,62.4,62.1,30.01,North,5,0.0,0.0,99,0.00,,,0.00,WeatherDisplay:10.37,2013-10-12 13:08:00,
2013-10-12 09:13:00,62.6,62.3,30.01,North,5,0.0,0.0,99,0.00,,,0.00,WeatherDisplay:10.37,2013-10-12 13:13:00,
2013-10-12 09:18:00,62.7,62.4,30.01,North,5,0.0,0.0,99,0.00,,,0.00,WeatherDisplay:10.37,2013-10-12 13:18:00,
2013-10-12 09:23:00,62.9,62.6,30.01,North,360,0.0,0.0,99,0.00,,,0.00,WeatherDisplay:10.37,2013-10-12 13:23:00,
2013-10-12 09:28:00,63.0,62.7,30.01,North,5,1.2,0.0,99,0.00,,,0.00,WeatherDisplay:10.37,2013-10-12 13:28:00,
2013-10-12 09:33:00,63.1,62.8,30.01,North,5,0.0,0.0,99,0.00,,,0.00,WeatherDisplay:10.37,2013-10-12 13:33:00,
2013-10-12 09:38:00,63.2,62.9,30.01,North,5,0.0,0.1,99,0.00,,,0.00,WeatherDisplay:10.37,2013-10-12 13:38:00,
2013-10-12 09:44:00,63.4,63.1,30.01,North,5,0.0,0.0,99,0.00,,,0.00,WeatherDisplay:10.37,2013-10-12 13:44:00,
2013-10-12 09:49:00,63.6,63.3,30.01,North,5,0.0,0.0,99,0.00,,,0.00,WeatherDisplay:10.37,2013-10-12 13:49:00,
2013-10-12 09:54:00,63.7,63.4,30.01,NNW,348,1.2,0.0,99,0.00,,,0.00,WeatherDisplay:10.37,2013-10-12 13:54:00,
2013-10-12 09:59:00,63.7,63.4,30.01,NNW,348,0.0,0.0,99,0.00,,,0.00,WeatherDisplay:10.37,2013-10-12 13:59:00,
2013-10-12 10:04:00,63.7,63.4,30.01,NNW,347,0.0,0.0,99,0.00,,,0.00,WeatherDisplay:10.37,2013-10-12 14:04:00,
2013-10-12 10:09:00,63.8,63.5,30.01,NNW,344,3.5,0.0,99,0.00,,,0.00,WeatherDisplay:10.37,2013-10-12 14:09:00,
2013-10-12 10:14:00,64.0,63.7,30.01,North,355,0.0,0.0,99,0.00,,,0.00,WeatherDisplay:10.37,2013-10-12 14:14:00,
2013-10-12 10:19:00,64.1,63.8,30.01,North,355,2.3,2.3,99,0.00,,,0.00,WeatherDisplay:10.37,2013-10-12 14:19:00,
2013-10-12 10:24:00,64.1,63.8,30.02,North,355,1.2,0.0,99,0.00,,,0.00,WeatherDisplay:10.37,2013-10-12 14:24:00,
2013-10-12 10:29:00,64.1,63.8,30.02,NNW,340,0.0,0.0,99,0.00,,,0.00,WeatherDisplay:10.37,2013-10-12 14:29:00,
2013-10-12 10:34:00,64.2,63.9,30.02,NNW,329,0.0,0.5,99,0.00,,,0.00,WeatherDisplay:10.37,2013-10-12 14:34:00,
2013-10-12 10:39:00,64.2,63.9,30.02,North,355,1.2,0.0,99,0.00,,,0.00,WeatherDisplay:10.37,2013-10-12 14:39:00,
2013-10-12 10:44:00,64.3,64.0,30.02,NW,325,0.0,0.9,99,0.00,,,0.00,WeatherDisplay:10.37,2013-10-12 14:44:00,
2013-10-12 10:49:00,64.4,64.1,30.02,NW,325,1.2,0.0,99,0.00,,,0.00,WeatherDisplay:10.37,2013-10-12 14:49:00,
2013-10-12 10:54:00,64.4,64.1,30.02,NNW,329,0.0,1.1,99,0.00,,,0.00,WeatherDisplay:10.37,2013-10-12 14:54:00,
2013-10-12 10:59:00,64.5,64.2,30.02,NNW,339,3.5,3.5,99,0.00,,,0.00,WeatherDisplay:10.37,2013-10-12 14:59:00,
2013-10-12 11:04:00,64.5,64.2,30.02,NNW,332,4.6,4.6,99,0.00,,,0.00,WeatherDisplay:10.37,2013-10-12 15:04:00,
2013-10-12 11:09:00,64.6,64.3,30.02,NNW,332,0.0,0.0,99,0.00,,,0.00,WeatherDisplay:10.37,2013-10-12 15:09:00,
2013-10-12 11:14:00,64.8,64.5,30.02,NNE,28,6.9,0.0,99,0.00,,,0.00,WeatherDisplay:10.37,2013-10-12 15:14:00,
2013-10-12 11:19:00,64.9,64.6,30.02,NNE,28,0.0,0.0,99,0.00,,,0.00,WeatherDisplay:10.37,2013-10-12 15:19:00,
2013-10-12 11:24:00,64.9,64.6,30.02,North,355,1.2,0.0,99,0.00,,,0.00,WeatherDisplay:10.37,2013-10-12 15:24:00,
2013-10-12 11:29:00,64.9,64.6,30.02,NNW,342,4.6,0.0,99,0.00,,,0.00,WeatherDisplay:10.37,2013-10-12 15:29:00,
2013-10-12 11:34:00,64.9,64.6,30.02,NNW,342,1.2,0.0,99,0.00,,,0.00,WeatherDisplay:10.37,2013-10-12 15:34:00,
2013-10-12 11:39:00,65.3,65.0,30.02,North,351,4.6,4.6,99,0.00,,,0.00,WeatherDisplay:10.37,2013-10-12 15:39:00,
2013-10-12 11:44:00,65.4,65.1,30.03,North,350,0.0,0.0,99,0.00,,,0.00,WeatherDisplay:10.37,2013-10-12 15:44:00,
2013-10-12 11:49:00,65.5,65.2,30.03,East,86,0.0,0.0,99,0.00,,,0.00,WeatherDisplay:10.37,2013-10-12 15:49:00,
2013-10-12 11:54:00,65.7,65.4,30.03,East,86,0.0,0.0,99,0.00,,,0.00,WeatherDisplay:10.37,2013-10-12 15:54:00,
2013-10-12 11:59:00,65.7,65.4,30.03,NNW,333,4.6,4.6,99,0.00,,,0.00,WeatherDisplay:10.37,2013-10-12 15:59:00,
2013-10-12 12:04:00,65.8,65.5,30.03,NNW,333,0.0,0.0,99,0.00,,,0.00,WeatherDisplay:10.37,2013-10-12 16:04:00,
2013-10-12 12:09:00,65.8,65.5,30.03,NNW,344,1.2,1.2,99,0.00,,,0.00,WeatherDisplay:10.37,2013-10-12 16:09:00,
2013-10-12 12:14:00,65.9,65.6,30.03,NNW,345,0.0,0.1,99,0.00,,,0.00,WeatherDisplay:10.37,2013-10-12 16:14:00,
2013-10-12 12:19:00,65.9,65.6,30.03,NNW,345,1.2,0.0,99,0.00,,,0.00,WeatherDisplay:10.37,2013-10-12 16:19:00,
2013-10-12 12:24:00,65.9,65.6,30.03,NE,44,1.2,1.2,99,0.00,,,0.00,WeatherDisplay:10.37,2013-10-12 16:24:00,
2013-10-12 12:29:00,65.9,65.6,30.02,NE,44,0.0,0.0,99,0.00,,,0.00,WeatherDisplay:10.37,2013-10-12 16:29:00,
2013-10-12 12:34:00,66.0,65.7,30.02,NE,44,1.2,0.0,99,0.00,,,0.00,WeatherDisplay:10.37,2013-10-12 16:34:00,
2013-10-12 12:39:00,66.2,65.9,30.02,NNE,12,2.3,2.3,99,0.00,,,0.00,WeatherDisplay:10.37,2013-10-12 16:39:00,
2013-10-12 12:44:00,66.2,65.9,30.02,North,355,3.5,3.5,99,0.00,,,0.00,WeatherDisplay:10.37,2013-10-12 16:44:00,
2013-10-12 12:49:00,66.4,66.1,30.02,North,355,2.3,0.0,99,0.00,,,0.00,WeatherDisplay:10.37,2013-10-12 16:49:00,
2013-10-12 12:54:00,66.6,66.3,30.02,North,355,0.0,0.0,99,0.00,,,0.00,WeatherDisplay:10.37,2013-10-12 16:54:00,
2013-10-12 12:59:00,66.9,66.6,30.01,NNW,331,0.0,0.0,99,0.00,,,0.00,WeatherDisplay:10.37,2013-10-12 16:59:00,
2013-10-12 13:04:00,67.1,66.8,30.01,North,350,1.2,0.0,99,0.00,,,0.00,WeatherDisplay:10.37,2013-10-12 17:04:00,
2013-10-12 13:09:00,67.3,67.0,30.01,NNW,334,5.8,5.8,99,0.00,,,0.00,WeatherDisplay:10.37,2013-10-12 17:09:00,
2013-10-12 13:14:00,67.3,67.0,30.01,North,360,4.6,4.6,99,0.00,,,0.00,WeatherDisplay:10.37,2013-10-12 17:14:00,
2013-10-12 13:19:00,67.2,66.9,30.01,NNW,330,0.0,0.0,99,0.00,,,0.00,WeatherDisplay:10.37,2013-10-12 17:19:00,
2013-10-12 13:24:00,67.5,66.9,30.01,NNW,348,2.3,0.0,98,0.00,,,0.00,WeatherDisplay:10.37,2013-10-12 17:24:00,
2013-10-12 13:29:00,67.8,67.2,30.01,NNW,348,2.3,0.0,98,0.00,,,0.00,WeatherDisplay:10.37,2013-10-12 17:29:00,
2013-10-12 13:34:00,68.0,67.4,30.01,North,355,0.0,1.9,98,0.00,,,0.00,WeatherDisplay:10.37,2013-10-12 17:34:00,
2013-10-12 13:39:00,68.0,67.4,30.01,NW,313,0.0,0.0,98,0.00,,,0.00,WeatherDisplay:10.37,2013-10-12 17:39:00,
2013-10-12 13:44:00,68.0,67.4,30.00,NW,313,3.5,0.0,98,0.00,,,0.00,WeatherDisplay:10.37,2013-10-12 17:44:00,
2013-10-12 13:49:00,68.2,67.0,30.00,North,5,3.0,3.0,96,0.00,,,0.00,WeatherDisplay:10.37,2013-10-12 17:49:00,
2013-10-12 13:54:00,68.3,67.1,30.00,North,360,1.2,0.0,96,0.00,,,0.00,WeatherDisplay:10.37,2013-10-12 17:54:00,
2013-10-12 13:59:00,68.4,67.2,30.00,North,5,0.0,0.0,96,0.00,,,0.00,WeatherDisplay:10.37,2013-10-12 17:59:00,
2013-10-12 14:04:00,68.4,66.9,30.00,North,360,0.0,0.0,95,0.00,,,0.00,WeatherDisplay:10.37,2013-10-12 18:04:00,
2013-10-12 14:09:00,68.5,67.0,30.00,North,360,0.0,0.0,95,0.00,,,0.00,WeatherDisplay:10.37,2013-10-12 18:09:00,
2013-10-12 14:14:00,68.6,67.1,29.99,North,360,0.0,0.0,95,0.00,,,0.00,WeatherDisplay:10.37,2013-10-12 18:14:00,
2013-10-12 14:19:00,68.7,66.9,29.99,North,360,1.2,0.0,94,0.00,,,0.00,WeatherDisplay:10.37,2013-10-12 18:19:00,
2013-10-12 14:24:00,68.8,67.0,29.99,North,360,0.0,0.0,94,0.00,,,0.00,WeatherDisplay:10.37,2013-10-12 18:24:00,
2013-10-12 14:29:00,68.7,66.6,29.99,North,355,1.2,0.0,93,0.00,,,0.00,WeatherDisplay:10.37,2013-10-12 18:29:00,
2013-10-12 14:34:00,68.8,66.7,30.00,North,355,1.2,0.0,93,0.00,,,0.00,WeatherDisplay:10.37,2013-10-12 18:34:00,
2013-10-12 14:39:00,68.7,66.3,30.00,WNW,298,0.0,0.0,92,0.00,,,0.00,WeatherDisplay:10.37,2013-10-12 18:39:00,
2013-10-12 14:44:00,68.7,66.3,30.00,NNW,328,0.0,0.0,92,0.00,,,0.00,WeatherDisplay:10.37,2013-10-12 18:44:00,
2013-10-12 14:49:00,68.5,66.1,30.00,NNW,340,2.0,2.5,92,0.00,,,0.00,WeatherDisplay:10.37,2013-10-12 18:49:00,
2013-10-12 14:54:00,68.5,65.8,30.00,NNW,340,0.0,0.0,91,0.00,,,0.00,WeatherDisplay:10.37,2013-10-12 18:54:00,
2013-10-12 14:59:00,68.5,65.8,30.00,NNW,340,1.2,0.0,91,0.00,,,0.00,WeatherDisplay:10.37,2013-10-12 18:59:00,
2013-10-12 15:04:00,68.5,65.8,30.00,NNW,340,0.0,0.0,91,0.00,,,0.00,WeatherDisplay:10.37,2013-10-12 19:04:00,
2013-10-12 15:09:00,68.5,65.8,30.00,NNW,340,1.0,1.0,91,0.00,,,0.00,WeatherDisplay:10.37,2013-10-12 19:09:00,
2013-10-12 15:14:00,68.6,65.9,30.00,NNW,340,0.0,0.0,91,0.00,,,0.00,WeatherDisplay:10.37,2013-10-12 19:14:00,
2013-10-12 15:19:00,68.6,65.9,30.00,NNW,340,0.0,0.0,91,0.00,,,0.00,WeatherDisplay:10.37,2013-10-12 19:19:00,
2013-10-12 15:24:00,68.6,65.9,30.01,NNW,340,3.5,0.0,91,0.00,,,0.00,WeatherDisplay:10.37,2013-10-12 19:24:00,
2013-10-12 15:29:00,68.6,65.9,30.01,North,355,0.0,0.7,91,0.00,,,0.00,WeatherDisplay:10.37,2013-10-12 19:29:00,
2013-10-12 15:34:00,68.6,65.9,30.01,North,355,5.8,5.8,91,0.00,,,0.00,WeatherDisplay:10.37,2013-10-12 19:34:00,
2013-10-12 15:39:00,68.5,65.8,30.01,North,355,3.5,3.5,91,0.00,,,0.00,WeatherDisplay:10.37,2013-10-12 19:39:00,
2013-10-12 15:44:00,68.4,65.7,30.01,North,355,0.0,0.0,91,0.00,,,0.00,WeatherDisplay:10.37,2013-10-12 19:44:00,
2013-10-12 15:49:00,68.4,65.7,30.01,North,355,0.0,0.0,91,0.00,,,0.00,WeatherDisplay:10.37,2013-10-12 19:49:00,
2013-10-12 15:54:00,68.4,65.7,30.01,North,355,3.5,0.0,91,0.00,,,0.00,WeatherDisplay:10.37,2013-10-12 19:54:00,
2013-10-12 15:59:00,68.3,65.6,30.01,North,355,2.3,2.3,91,0.00,,,0.00,WeatherDisplay:10.37,2013-10-12 19:59:00,
2013-10-12 16:04:00,68.3,65.6,30.01,West,275,3.5,3.5,91,0.00,,,0.00,WeatherDisplay:10.37,2013-10-12 20:04:00,
2013-10-12 16:09:00,68.2,65.5,30.01,NNW,331,4.6,4.6,91,0.00,,,0.00,WeatherDisplay:10.37,2013-10-12 20:09:00,
2013-10-12 16:14:00,68.1,65.4,30.02,NNW,331,3.5,0.0,91,0.00,,,0.00,WeatherDisplay:10.37,2013-10-12 20:14:00,
2013-10-12 16:19:00,68.1,65.4,30.02,NNW,331,0.0,0.0,91,0.00,,,0.00,WeatherDisplay:10.37,2013-10-12 20:19:00,
2013-10-12 16:24:00,68.0,65.3,30.02,NW,312,5.8,5.8,91,0.00,,,0.00,WeatherDisplay:10.37,2013-10-12 20:24:00,
2013-10-12 16:29:00,68.0,65.3,30.02,NW,313,0.0,0.0,91,0.00,,,0.00,WeatherDisplay:10.37,2013-10-12 20:29:00,
2013-10-12 16:34:00,67.8,65.1,30.02,NNW,338,4.6,4.6,91,0.00,,,0.00,WeatherDisplay:10.37,2013-10-12 20:34:00,
2013-10-12 16:39:00,67.8,65.4,30.02,NW,318,3.5,0.0,92,0.00,,,0.00,WeatherDisplay:10.37,2013-10-12 20:39:00,
2013-10-12 16:44:00,67.7,65.3,30.02,NW,324,5.0,5.0,92,0.00,,,0.00,WeatherDisplay:10.37,2013-10-12 20:44:00,
2013-10-12 16:49:00,67.7,65.3,30.02,NW,323,0.0,0.1,92,0.00,,,0.00,WeatherDisplay:10.37,2013-10-12 20:49:00,
2013-10-12 16:54:00,67.6,65.2,30.02,NW,324,2.3,2.3,92,0.00,,,0.00,WeatherDisplay:10.37,2013-10-12 20:54:00,
2013-10-12 16:59:00,67.5,65.1,30.02,NW,321,0.0,0.0,92,0.00,,,0.00,WeatherDisplay:10.37,2013-10-12 20:59:00,
2013-10-12 17:04:00,67.5,65.1,30.02,NW,321,0.0,0.9,92,0.00,,,0.00,WeatherDisplay:10.37,2013-10-12 21:04:00,
2013-10-12 17:09:00,67.5,65.1,30.02,NW,321,0.0,0.0,92,0.00,,,0.00,WeatherDisplay:10.37,2013-10-12 21:09:00,
2013-10-12 17:14:00,67.5,65.1,30.02,NW,321,3.5,3.5,92,0.00,,,0.00,WeatherDisplay:10.37,2013-10-12 21:14:00,
2013-10-12 17:19:00,67.4,65.0,30.02,NE,38,0.0,0.0,92,0.00,,,0.00,WeatherDisplay:10.37,2013-10-12 21:19:00,
2013-10-12 17:24:00,67.4,65.0,30.03,NNW,342,0.0,0.0,92,0.00,,,0.00,WeatherDisplay:10.37,2013-10-12 21:24:00,
2013-10-12 17:29:00,67.3,65.2,30.03,NNE,15,0.0,0.0,93,0.00,,,0.00,WeatherDisplay:10.37,2013-10-12 21:29:00,
2013-10-12 17:34:00,67.3,65.2,30.03,NNE,14,0.0,0.0,93,0.00,,,0.00,WeatherDisplay:10.37,2013-10-12 21:34:00,
2013-10-12 17:39:00,67.3,65.2,30.03,NNE,13,0.0,0.0,93,0.00,,,0.00,WeatherDisplay:10.37,2013-10-12 21:39:00,
2013-10-12 17:44:00,67.3,65.2,30.03,NNE,13,3.5,3.5,93,0.00,,,0.00,WeatherDisplay:10.37,2013-10-12 21:44:00,
2013-10-12 17:55:00,67.3,65.2,30.03,North,5,0.0,0.0,93,0.00,CLR,,0.00,WeatherDisplay:10.37,2013-10-12 21:55:00,
2013-10-12 18:00:00,67.2,65.1,30.03,North,355,5.8,5.8,93,0.00,CLR,,0.00,WeatherDisplay:10.37,2013-10-12 22:00:00,
2013-10-12 18:05:00,67.1,65.0,30.04,North,355,9.2,0.0,93,0.00,CLR,,0.00,WeatherDisplay:10.37,2013-10-12 22:05:00,
2013-10-12 18:10:00,67.1,65.0,30.04,North,355,2.3,0.0,93,0.00,CLR,,0.00,WeatherDisplay:10.37,2013-10-12 22:10:00,
2013-10-12 18:15:00,67.1,65.0,30.04,North,355,0.0,0.0,93,0.00,CLR,,0.00,WeatherDisplay:10.37,2013-10-12 22:15:00,
2013-10-12 18:20:00,67.0,64.9,30.04,North,355,0.0,0.0,93,0.00,CLR,,0.00,WeatherDisplay:10.37,2013-10-12 22:20:00,
2013-10-12 18:25:00,66.9,64.8,30.04,NNW,327,11.5,11.5,93,0.00,CLR,,0.00,WeatherDisplay:10.37,2013-10-12 22:25:00,
2013-10-12 18:30:00,66.7,64.6,30.04,NNW,345,4.0,4.0,93,0.00,CLR,,0.00,WeatherDisplay:10.37,2013-10-12 22:30:00,
2013-10-12 18:35:00,66.6,64.8,30.04,NNW,340,2.3,2.3,94,0.00,CLR,,0.00,WeatherDisplay:10.37,2013-10-12 22:35:00,
2013-10-12 18:40:00,66.5,64.7,30.04,NNW,340,0.0,0.0,94,0.00,CLR,,0.00,WeatherDisplay:10.37,2013-10-12 22:40:00,
2013-10-12 18:45:00,66.4,64.6,30.05,NNW,340,0.0,0.1,94,0.00,CLR,,0.00,WeatherDisplay:10.37,2013-10-12 22:45:00,
2013-10-12 18:50:00,66.3,64.5,30.05,NNW,340,0.0,0.1,94,0.00,CLR,,0.00,WeatherDisplay:10.37,2013-10-12 22:50:00,
2013-10-12 18:55:00,66.2,64.4,30.05,NNW,340,1.2,0.0,94,0.00,CLR,,0.00,WeatherDisplay:10.37,2013-10-12 22:55:00,
2013-10-12 19:00:00,66.1,64.3,30.05,NNW,340,0.0,0.0,94,0.00,CLR,,0.00,WeatherDisplay:10.37,2013-10-12 23:00:00,
2013-10-12 19:05:00,66.0,64.2,30.05,NNW,340,0.0,0.0,94,0.00,CLR,,0.00,WeatherDisplay:10.37,2013-10-12 23:05:00,
2013-10-12 19:10:00,66.0,64.2,30.05,NNW,341,1.2,1.2,94,0.00,CLR,,0.00,WeatherDisplay:10.37,2013-10-12 23:10:00,
2013-10-12 19:15:00,65.9,64.4,30.05,NNE,15,3.5,3.5,95,0.00,CLR,,0.00,WeatherDisplay:10.37,2013-10-12 23:15:00,
2013-10-12 19:20:00,65.8,64.3,30.05,North,360,3.5,3.5,95,0.00,CLR,,0.00,WeatherDisplay:10.37,2013-10-12 23:20:00,
2013-10-12 19:25:00,65.7,64.2,30.05,North,355,0.0,0.0,95,0.00,CLR,,0.00,WeatherDisplay:10.37,2013-10-12 23:25:00,
2013-10-12 19:30:00,65.7,64.2,30.06,North,355,1.2,0.0,95,0.00,CLR,,0.00,WeatherDisplay:10.37,2013-10-12 23:30:00,
2013-10-12 19:35:00,65.6,64.1,30.06,North,355,0.0,0.0,95,0.00,CLR,,0.00,WeatherDisplay:10.37,2013-10-12 23:35:00,
2013-10-12 19:40:00,65.5,64.0,30.06,North,355,0.0,0.0,95,0.00,CLR,,0.00,WeatherDisplay:10.37,2013-10-12 23:40:00,
2013-10-12 19:45:00,65.4,63.9,30.06,North,355,0.0,0.0,95,0.00,CLR,,0.00,WeatherDisplay:10.37,2013-10-12 23:45:00,
2013-10-12 19:50:00,65.3,63.8,30.06,North,355,4.6,4.6,95,0.00,CLR,,0.00,WeatherDisplay:10.37,2013-10-12 23:50:00,
2013-10-12 19:55:00,65.2,63.7,30.06,North,355,0.0,0.0,95,0.00,CLR,,0.00,WeatherDisplay:10.37,2013-10-12 23:55:00,
2013-10-12 20:00:00,65.1,63.6,30.06,North,360,1.2,1.2,95,0.00,CLR,,0.00,WeatherDisplay:10.37,2013-10-13 00:00:00,
2013-10-12 20:05:00,65.0,63.5,30.06,North,355,5.8,0.0,95,0.00,CLR,,0.00,WeatherDisplay:10.37,2013-10-13 00:05:00,
2013-10-12 20:10:00,64.9,63.4,30.07,North,355,0.0,0.0,95,0.00,CLR,,0.00,WeatherDisplay:10.37,2013-10-13 00:10:00,
2013-10-12 20:15:00,64.9,63.4,30.07,North,350,8.1,8.1,95,0.00,CLR,,0.00,WeatherDisplay:10.37,2013-10-13 00:15:00,
2013-10-12 20:20:00,64.8,63.3,30.07,North,360,3.5,3.5,95,0.00,CLR,,0.00,WeatherDisplay:10.37,2013-10-13 00:20:00,
2013-10-12 20:25:00,64.8,63.6,30.07,WNW,284,2.3,2.3,96,0.00,CLR,,0.00,WeatherDisplay:10.37,2013-10-13 00:25:00,
2013-10-12 20:30:00,64.7,63.5,30.07,WNW,286,0.0,0.0,96,0.00,CLR,,0.00,WeatherDisplay:10.37,2013-10-13 00:30:00,
2013-10-12 20:35:00,64.6,63.1,30.07,North,9,4.6,4.6,95,0.00,CLR,,0.00,WeatherDisplay:10.37,2013-10-13 00:35:00,
2013-10-12 20:40:00,64.5,63.3,30.07,North,9,0.0,0.0,96,0.00,CLR,,0.00,WeatherDisplay:10.37,2013-10-13 00:40:00,
2013-10-12 20:45:00,64.5,63.3,30.07,North,9,0.0,0.0,96,0.00,CLR,,0.00,WeatherDisplay:10.37,2013-10-13 00:45:00,
2013-10-12 20:50:00,64.5,63.3,30.07,North,9,0.0,0.0,96,0.00,CLR,,0.00,WeatherDisplay:10.37,2013-10-13 00:50:00,
2013-10-12 20:55:00,64.4,63.2,30.07,North,9,1.2,1.2,96,0.00,CLR,,0.00,WeatherDisplay:10.37,2013-10-13 00:55:00,
2013-10-12 21:00:00,64.4,63.2,30.07,North,9,0.0,0.0,96,0.00,CLR,,0.00,WeatherDisplay:10.37,2013-10-13 01:00:00,
2013-10-12 21:05:00,64.4,63.2,30.07,North,5,3.5,3.5,96,0.00,CLR,,0.00,WeatherDisplay:10.37,2013-10-13 01:05:00,
2013-10-12 21:10:00,64.3,63.1,30.07,North,5,0.0,0.1,96,0.00,CLR,,0.00,WeatherDisplay:10.37,2013-10-13 01:10:00,
2013-10-12 21:15:00,64.3,63.1,30.07,North,5,0.0,0.0,96,0.00,CLR,,0.00,WeatherDisplay:10.37,2013-10-13 01:15:00,
2013-10-12 21:20:00,64.2,63.0,30.07,NNE,13,5.8,5.8,96,0.01,RA,,0.01,WeatherDisplay:10.37,2013-10-13 01:20:00,
2013-10-12 21:25:00,64.2,63.0,30.07,NW,317,10.4,10.4,96,0.01,RA,,0.01,WeatherDisplay:10.37,2013-10-13 01:25:00,
2013-10-12 21:30:00,64.1,62.9,30.07,NNW,340,1.2,0.0,96,0.01,CLR,,0.01,WeatherDisplay:10.37,2013-10-13 01:30:00,
2013-10-12 21:35:00,64.0,62.8,30.07,NNW,340,0.0,0.0,96,0.01,CLR,,0.01,WeatherDisplay:10.37,2013-10-13 01:35:00,
2013-10-12 21:40:00,63.9,62.7,30.08,NNW,340,0.0,0.0,96,0.01,CLR,,0.01,WeatherDisplay:10.37,2013-10-13 01:40:00,
2013-10-12 21:45:00,63.9,62.7,30.07,NW,311,0.0,0.8,96,0.01,CLR,,0.01,WeatherDisplay:10.37,2013-10-13 01:45:00,
2013-10-12 21:50:00,63.8,62.6,30.08,NW,311,0.0,0.0,96,0.01,CLR,,0.01,WeatherDisplay:10.37,2013-10-13 01:50:00,
2013-10-12 21:56:00,63.8,62.6,30.08,NW,311,0.0,0.0,96,0.01,CLR,,0.01,WeatherDisplay:10.37,2013-10-13 01:56:00,
2013-10-12 21:57:00,63.8,62.6,30.07,NW,311,0.0,0.0,96,0.01,CLR,,0.01,WeatherDisplay:10.37,2013-10-13 01:57:00,
2013-10-12 22:02:00,63.7,62.5,30.07,NNE,17,0.0,0.0,96,0.01,CLR,,0.01,WeatherDisplay:10.37,2013-10-13 02:02:00,
2013-10-12 22:07:00,63.7,62.5,30.08,North,9,4.6,4.6,96,0.01,CLR,,0.01,WeatherDisplay:10.37,2013-10-13 02:07:00,
2013-10-12 22:12:00,63.7,63.1,30.08,North,360,2.3,2.3,98,0.01,CLR,,0.01,WeatherDisplay:10.37,2013-10-13 02:12:00,
2013-10-12 22:17:00,63.7,63.1,30.08,North,5,1.2,0.0,98,0.01,CLR,,0.01,WeatherDisplay:10.37,2013-10-13 02:17:00,
2013-10-12 22:22:00,63.6,63.0,30.08,North,360,1.2,1.2,98,0.00,CLR,,0.01,WeatherDisplay:10.37,2013-10-13 02:22:00,
2013-10-12 22:27:00,63.6,63.0,30.08,NNE,14,0.0,0.0,98,0.00,CLR,,0.01,WeatherDisplay:10.37,2013-10-13 02:27:00,
2013-10-12 22:32:00,63.6,63.3,30.08,NNE,15,0.0,0.0,99,0.00,,,0.01,WeatherDisplay:10.37,2013-10-13 02:32:00,
2013-10-12 22:37:00,63.6,63.0,30.08,NNE,14,0.0,0.0,98,0.00,,,0.01,WeatherDisplay:10.37,2013-10-13 02:37:00,
2013-10-12 22:42:00,63.6,63.0,30.08,NNE,13,1.2,1.2,98,0.00,,,0.01,WeatherDisplay:10.37,2013-10-13 02:42:00,
2013-10-12 22:47:00,63.5,62.9,30.08,NNW,343,2.3,2.3,98,0.00,,,0.01,WeatherDisplay:10.37,2013-10-13 02:47:00,
2013-10-12 22:52:00,63.5,62.9,30.08,NNW,344,0.0,0.0,98,0.00,,,0.01,WeatherDisplay:10.37,2013-10-13 02:52:00,
2013-10-12 22:57:00,63.5,62.9,30.08,NNW,343,1.2,0.0,98,0.00,,,0.01,WeatherDisplay:10.37,2013-10-13 02:57:00,
2013-10-12 23:02:00,63.5,62.9,30.08,NNW,343,0.0,0.0,98,0.00,,,0.01,WeatherDisplay:10.37,2013-10-13 03:02:00,
2013-10-12 23:07:00,63.5,62.9,30.08,NNW,342,3.5,3.5,98,0.00,,,0.01,WeatherDisplay:10.37,2013-10-13 03:07:00,
2013-10-12 23:12:00,63.4,62.8,30.08,NNW,343,0.0,0.0,98,0.01,RA,,0.02,WeatherDisplay:10.37,2013-10-13 03:12:00,
2013-10-12 23:17:00,63.4,62.8,30.08,NNW,343,0.0,0.0,98,0.01,RA,,0.02,WeatherDisplay:10.37,2013-10-13 03:17:00,
2013-10-12 23:22:00,63.4,62.8,30.08,NNW,342,0.0,0.0,98,0.01,,,0.02,WeatherDisplay:10.37,2013-10-13 03:22:00,
2013-10-12 23:27:00,63.4,62.8,30.08,NNW,343,0.0,0.0,98,0.01,,,0.02,WeatherDisplay:10.37,2013-10-13 03:27:00,
2013-10-12 23:32:00,63.4,62.8,30.08,NNW,342,0.0,0.0,98,0.01,,,0.02,WeatherDisplay:10.37,2013-10-13 03:32:00,
2013-10-12 23:37:00,63.4,62.8,30.08,NNW,343,1.2,0.0,98,0.01,,,0.02,WeatherDisplay:10.37,2013-10-13 03:37:00,
2013-10-12 23:42:00,63.4,62.8,30.08,NNW,343,0.0,0.0,98,0.01,,,0.02,WeatherDisplay:10.37,2013-10-13 03:42:00,
2013-10-12 23:47:00,63.4,62.8,30.08,NNW,343,0.0,0.0,98,0.01,,,0.02,WeatherDisplay:10.37,2013-10-13 03:47:00,
2013-10-12 23:52:00,63.4,62.8,30.08,NNW,343,0.0,0.0,98,0.01,,,0.02,WeatherDisplay:10.37,2013-10-13 03:52:00,
2013-10-12 23:57:00,63.3,62.7,30.08,NNW,343,0.0,0.0,98,0.01,,,0.02,WeatherDisplay:10.37,2013-10-13 03:57:00,